createdAt,value
2022-10-14T00:02:22.796Z,70.09
2022-10-14T00:04:49.870Z,70.18
2022-10-14T00:07:16.340Z,70.19
2022-10-14T00:09:42.867Z,70.31
2022-10-14T00:12:09.754Z,70.20
2022-10-14T00:14:36.337Z,70.37
2022-10-14T00:17:02.808Z,70.31
2022-10-14T00:19:29.456Z,70.22
2022-10-14T00:21:56.007Z,70.47
2022-10-14T00:24:22.448Z,70.54
2022-10-14T00:26:49.119Z,70.61
2022-10-14T00:29:17.649Z,70.63
2022-10-14T00:31:44.420Z,70.75
2022-10-14T00:34:11.227Z,70.72
2022-10-14T00:36:37.689Z,70.81
2022-10-14T00:39:04.446Z,70.72
2022-10-14T00:41:35.484Z,70.64
2022-10-14T00:44:27.876Z,70.42
2022-10-14T00:46:56.000Z,70.45
2022-10-14T00:49:28.718Z,70.72
2022-10-14T00:52:05.587Z,70.86
2022-10-14T00:54:54.422Z,70.69
2022-10-14T00:57:22.891Z,70.62
2022-10-14T00:59:49.852Z,70.75
2022-10-14T01:05:09.519Z,70.67
2022-10-14T01:10:33.021Z,70.86
2022-10-14T01:13:21.928Z,70.79
2022-10-14T01:15:55.547Z,70.96
2022-10-14T01:18:30.741Z,70.68
2022-10-14T01:21:13.304Z,70.51
2022-10-14T01:23:51.707Z,70.48
2022-10-14T01:27:07.854Z,70.51
2022-10-14T01:30:05.624Z,70.51
2022-10-14T01:32:36.125Z,70.53
2022-10-14T01:35:33.070Z,70.48
2022-10-14T01:38:10.975Z,70.19
2022-10-14T01:40:45.339Z,70.44
2022-10-14T01:43:14.115Z,70.49
2022-10-14T01:45:43.575Z,70.44
2022-10-14T01:48:15.328Z,70.50
2022-10-14T01:50:45.853Z,70.51
2022-10-14T01:53:20.259Z,70.25
2022-10-14T01:55:48.665Z,70.33
2022-10-14T01:58:20.247Z,70.45
2022-10-14T02:00:46.764Z,70.42
2022-10-14T02:03:13.542Z,70.24
2022-10-14T02:05:46.753Z,70.21
2022-10-14T02:08:20.259Z,70.02
2022-10-14T02:11:04.556Z,70.25
2022-10-14T02:13:45.344Z,70.15
2022-10-14T02:16:35.144Z,69.98
2022-10-14T02:19:10.296Z,70.50
2022-10-14T02:21:54.126Z,70.19
2022-10-14T02:24:26.744Z,70.54
2022-10-14T02:26:56.285Z,70.70
2022-10-14T02:29:25.177Z,70.70
2022-10-14T02:31:54.783Z,70.63
2022-10-14T02:34:23.022Z,70.33
2022-10-14T02:36:50.618Z,70.97
2022-10-14T02:39:25.572Z,70.67
2022-10-14T02:41:52.162Z,70.72
2022-10-14T02:44:18.842Z,70.83
2022-10-14T02:46:46.317Z,70.83
2022-10-14T02:49:12.910Z,70.69
2022-10-14T02:51:39.423Z,70.72
2022-10-14T02:54:10.568Z,70.69
2022-10-14T02:56:37.134Z,70.77
2022-10-14T02:59:03.731Z,70.68
2022-10-14T03:01:35.166Z,70.89
2022-10-14T03:04:05.033Z,71.06
2022-10-14T03:06:32.453Z,70.94
2022-10-14T03:08:59.836Z,70.85
2022-10-14T03:11:26.882Z,70.86
2022-10-14T03:13:59.233Z,70.97
2022-10-14T03:16:26.848Z,71.31
2022-10-14T03:18:54.056Z,71.30
2022-10-14T03:21:34.319Z,71.27
2022-10-14T03:24:00.871Z,71.27
2022-10-14T03:26:32.265Z,71.36
2022-10-14T03:28:58.941Z,71.50
2022-10-14T03:31:37.164Z,71.43
2022-10-14T03:34:23.931Z,71.47
2022-10-14T03:36:59.467Z,71.38
2022-10-14T03:39:26.815Z,71.29
2022-10-14T03:41:58.562Z,71.54
2022-10-14T03:44:33.298Z,71.57
2022-10-14T03:47:11.817Z,71.53
2022-10-14T03:49:38.830Z,71.58
2022-10-14T03:52:12.808Z,71.70
2022-10-14T03:54:41.471Z,71.62
2022-10-14T03:57:09.411Z,71.67
2022-10-14T03:59:43.607Z,71.60
2022-10-14T04:02:10.729Z,71.76
2022-10-14T04:04:39.935Z,71.75
2022-10-14T04:07:06.484Z,71.90
2022-10-14T04:09:36.224Z,71.66
2022-10-14T04:12:05.186Z,71.75
2022-10-14T04:14:48.239Z,71.74
2022-10-14T04:17:15.571Z,71.80
2022-10-14T04:19:43.298Z,71.81
2022-10-14T04:22:10.042Z,71.79
2022-10-14T04:24:36.596Z,71.80
2022-10-14T04:27:03.160Z,71.82
2022-10-14T04:29:55.932Z,71.86
2022-10-14T04:32:27.579Z,71.63
2022-10-14T04:34:54.366Z,71.77
2022-10-14T04:37:24.197Z,71.68
2022-10-14T04:40:13.851Z,71.75
2022-10-14T04:42:46.968Z,71.63
2022-10-14T04:45:21.923Z,71.55
2022-10-14T04:47:55.020Z,71.49
2022-10-14T04:50:24.054Z,71.51
2022-10-14T04:53:13.258Z,71.55
2022-10-14T04:55:50.390Z,71.47
2022-10-14T04:58:17.472Z,71.19
2022-10-14T05:00:46.598Z,71.64
2022-10-14T05:03:27.126Z,71.52
2022-10-14T05:05:53.682Z,71.62
2022-10-14T05:08:20.748Z,71.75
2022-10-14T05:10:51.228Z,71.57
2022-10-14T05:13:31.627Z,71.53
2022-10-14T05:16:03.111Z,71.46
2022-10-14T05:18:29.703Z,71.42
2022-10-14T05:21:07.234Z,71.34
2022-10-14T05:23:52.075Z,71.35
2022-10-14T05:26:19.101Z,71.47
2022-10-14T05:28:46.278Z,71.44
2022-10-14T05:31:12.944Z,71.42
2022-10-14T05:33:48.700Z,71.48
2022-10-14T05:36:15.568Z,71.39
2022-10-14T05:38:42.092Z,71.52
2022-10-14T05:41:09.796Z,71.44
2022-10-14T05:43:37.787Z,71.40
2022-10-14T05:46:05.891Z,71.46
2022-10-14T05:48:37.066Z,71.41
2022-10-14T05:51:04.294Z,71.47
2022-10-14T05:53:34.350Z,71.40
2022-10-14T05:56:06.781Z,71.36
2022-10-14T05:58:34.145Z,71.29
2022-10-14T06:01:02.217Z,71.30
2022-10-14T06:03:29.171Z,71.40
2022-10-14T06:05:56.676Z,71.35
2022-10-14T06:08:24.388Z,71.20
2022-10-14T06:10:52.611Z,71.16
2022-10-14T06:13:20.243Z,70.44
2022-10-14T06:15:49.300Z,71.38
2022-10-14T06:18:15.863Z,71.53
2022-10-14T06:20:42.507Z,71.69
2022-10-14T06:23:08.964Z,71.84
2022-10-14T06:25:36.637Z,72.03
2022-10-14T06:28:05.078Z,71.70
2022-10-14T06:30:32.704Z,71.82
2022-10-14T06:32:59.216Z,71.91
2022-10-14T06:35:25.958Z,71.86
2022-10-14T06:37:52.612Z,71.84
2022-10-14T06:40:19.255Z,71.84
2022-10-14T06:42:45.860Z,71.77
2022-10-14T06:45:12.529Z,71.92
2022-10-14T06:47:39.351Z,71.99
2022-10-14T06:50:06.497Z,71.78
2022-10-14T06:52:33.139Z,71.85
2022-10-14T06:54:59.823Z,72.06
2022-10-14T06:57:26.322Z,71.91
2022-10-14T06:59:52.833Z,71.79
2022-10-14T07:02:19.744Z,71.87
2022-10-14T07:04:46.725Z,71.78
2022-10-14T07:07:13.243Z,71.62
2022-10-14T07:09:39.767Z,71.69
2022-10-14T07:12:06.394Z,71.60
2022-10-14T07:14:33.152Z,71.95
2022-10-14T07:16:59.720Z,71.85
2022-10-14T07:19:26.320Z,71.71
2022-10-14T07:21:52.856Z,71.64
2022-10-14T07:24:19.771Z,71.93
2022-10-14T07:26:46.415Z,71.80
2022-10-14T07:29:12.925Z,71.74
2022-10-14T07:31:39.545Z,71.92
2022-10-14T07:34:06.048Z,71.85
2022-10-14T07:36:32.594Z,71.90
2022-10-14T07:38:59.187Z,71.72
2022-10-14T07:41:25.770Z,71.41
2022-10-14T07:43:59.255Z,70.11
2022-10-14T07:46:26.163Z,70.79
2022-10-14T07:48:57.075Z,70.34
2022-10-14T07:51:24.424Z,70.59
2022-10-14T07:53:51.014Z,70.53
2022-10-14T07:56:19.909Z,70.38
2022-10-14T07:58:46.654Z,70.56
2022-10-14T08:01:13.277Z,70.72
2022-10-14T08:03:39.855Z,70.86
2022-10-14T08:06:06.902Z,70.77
2022-10-14T08:08:33.707Z,70.58
2022-10-14T08:11:09.270Z,69.98
2022-10-14T08:13:39.401Z,70.53
2022-10-14T08:16:19.840Z,69.81
2022-10-14T08:18:47.141Z,70.10
2022-10-14T08:21:14.647Z,69.84
2022-10-14T08:23:41.209Z,69.65
2022-10-14T08:26:28.428Z,69.09
2022-10-14T08:28:55.143Z,70.12
2022-10-14T08:31:21.811Z,70.06
2022-10-14T08:33:48.629Z,70.27
2022-10-14T08:36:16.083Z,70.39
2022-10-14T08:38:42.552Z,70.34
2022-10-14T08:41:14.720Z,68.70
2022-10-14T08:44:20.890Z,68.42
2022-10-14T08:46:52.467Z,68.73
2022-10-14T08:49:47.761Z,68.58
2022-10-14T08:52:21.287Z,67.81
2022-10-14T08:55:20.118Z,68.19
2022-10-14T08:57:51.776Z,67.80
2022-10-14T09:00:20.554Z,68.43
2022-10-14T09:02:49.878Z,68.63
2022-10-14T09:05:21.979Z,67.98
2022-10-14T09:10:41.878Z,67.59
2022-10-14T09:13:22.564Z,68.13
2022-10-14T09:15:58.003Z,66.96
2022-10-14T09:18:50.927Z,65.56
2022-10-14T09:21:58.300Z,66.54
2022-10-14T09:24:32.535Z,67.25
2022-10-14T09:27:16.216Z,65.01
2022-10-14T09:29:54.188Z,66.01
2022-10-14T09:32:26.382Z,67.72
2022-10-14T09:34:53.411Z,67.38
2022-10-14T09:37:32.126Z,65.54
2022-10-14T09:40:02.166Z,66.43
2022-10-14T09:42:46.219Z,65.52
2022-10-14T09:45:15.894Z,66.76
2022-10-14T09:47:58.988Z,65.13
2022-10-14T09:50:41.051Z,64.51
2022-10-14T09:53:16.708Z,65.43
2022-10-14T09:55:54.114Z,63.90
2022-10-14T09:58:32.982Z,63.70
2022-10-14T10:01:00.900Z,66.36
2022-10-14T10:03:32.855Z,63.64
2022-10-14T10:06:00.933Z,65.84
2022-10-14T10:08:27.375Z,66.55
2022-10-14T10:11:03.635Z,63.67
2022-10-14T10:13:36.995Z,61.97
2022-10-14T10:16:05.722Z,63.33
2022-10-14T10:18:32.338Z,63.54
2022-10-14T10:21:17.667Z,60.21
2022-10-14T10:23:51.305Z,60.45
2022-10-14T10:26:21.253Z,61.90
2022-10-14T10:28:49.449Z,62.03
2022-10-14T10:31:37.727Z,60.42
2022-10-14T10:34:33.572Z,61.64
2022-10-14T10:37:18.481Z,60.28
2022-10-14T10:39:50.309Z,61.14
2022-10-14T10:42:27.043Z,60.85
2022-10-14T10:45:06.350Z,59.96
2022-10-14T10:47:53.703Z,59.86
2022-10-14T10:50:43.894Z,58.46
2022-10-14T10:53:32.362Z,59.61
2022-10-14T10:56:20.046Z,58.60
2022-10-14T10:58:55.584Z,58.75
2022-10-14T11:01:53.112Z,57.68
2022-10-14T11:04:56.183Z,57.19
2022-10-14T11:08:06.912Z,58.00
2022-10-14T11:10:39.709Z,59.96
2022-10-14T11:13:20.706Z,55.65
2022-10-14T11:15:58.556Z,56.60
2022-10-14T11:18:30.183Z,60.19
2022-10-14T11:21:38.110Z,57.32
2022-10-14T11:24:35.526Z,59.40
2022-10-14T11:27:27.744Z,56.63
2022-10-14T11:30:12.097Z,57.65
2022-10-14T11:32:48.599Z,59.07
2022-10-14T11:35:45.599Z,54.55
2022-10-14T11:38:31.277Z,55.75
2022-10-14T11:41:07.147Z,54.80
2022-10-14T11:43:58.543Z,54.75
2022-10-14T11:46:33.689Z,56.48
2022-10-14T11:49:39.028Z,54.64
2022-10-14T11:52:15.478Z,54.91
2022-10-14T11:54:48.177Z,55.92
2022-10-14T11:57:22.840Z,55.92
2022-10-14T12:00:03.862Z,54.59
2022-10-14T12:03:01.048Z,54.30
2022-10-14T12:05:36.114Z,52.09
2022-10-14T12:08:14.676Z,55.29
2022-10-14T12:10:53.553Z,54.97
2022-10-14T12:13:34.535Z,50.89
2022-10-14T12:16:03.457Z,55.53
2022-10-14T12:18:31.565Z,55.74
2022-10-14T12:21:32.861Z,54.12
2022-10-14T12:24:10.981Z,54.83
2022-10-14T12:26:49.892Z,54.14
2022-10-14T12:29:20.634Z,55.78
2022-10-14T12:32:00.124Z,53.50
2022-10-14T12:34:33.393Z,51.40
2022-10-14T12:37:27.423Z,52.84
2022-10-14T12:40:03.262Z,55.25
2022-10-14T12:42:32.075Z,55.29
2022-10-14T12:45:12.955Z,54.02
2022-10-14T12:47:40.091Z,54.84
2022-10-14T12:50:24.660Z,52.44
2022-10-14T12:53:01.014Z,50.70
2022-10-14T12:55:34.202Z,54.01
2022-10-14T12:58:03.423Z,52.89
2022-10-14T13:00:39.662Z,54.27
2022-10-14T13:03:21.600Z,51.59
2022-10-14T13:05:48.298Z,54.37
2022-10-14T13:08:20.531Z,52.86
2022-10-14T13:10:59.430Z,54.89
2022-10-14T13:13:38.224Z,49.65
2022-10-14T13:16:09.892Z,54.66
2022-10-14T13:18:42.393Z,54.61
2022-10-14T13:21:20.285Z,54.57
2022-10-14T13:23:51.203Z,54.41
2022-10-14T13:27:02.625Z,53.36
2022-10-14T13:29:45.704Z,53.43
2022-10-14T13:32:31.218Z,55.97
2022-10-14T13:35:19.384Z,55.61
2022-10-14T13:37:56.613Z,54.36
2022-10-14T13:40:43.518Z,54.76
2022-10-14T13:43:16.238Z,55.36
2022-10-14T13:45:47.371Z,56.21
2022-10-14T13:48:23.609Z,54.09
2022-10-14T13:51:02.140Z,55.68
2022-10-14T13:53:49.202Z,55.38
2022-10-14T13:56:22.998Z,55.31
2022-10-14T13:58:50.910Z,56.67
2022-10-14T14:01:20.876Z,55.88
2022-10-14T14:03:53.291Z,54.90
2022-10-14T14:06:21.733Z,56.19
2022-10-14T14:08:53.117Z,54.29
2022-10-14T14:11:25.405Z,53.28
2022-10-14T14:14:00.611Z,53.77
2022-10-14T14:16:41.269Z,51.17
2022-10-14T14:19:19.656Z,52.99
2022-10-14T14:21:46.237Z,54.34
2022-10-14T14:24:24.379Z,51.31
2022-10-14T14:26:55.357Z,52.38
2022-10-14T14:29:28.359Z,53.67
2022-10-14T14:32:12.048Z,54.48
2022-10-14T14:34:42.220Z,54.89
2022-10-14T14:40:07.020Z,53.28
2022-10-14T14:42:39.809Z,54.47
2022-10-14T14:45:53.170Z,55.10
2022-10-14T14:48:19.886Z,55.62
2022-10-14T14:50:46.977Z,55.93
2022-10-14T14:53:20.528Z,56.10
2022-10-14T14:55:53.322Z,56.54
2022-10-14T14:58:28.094Z,57.28
2022-10-14T15:00:55.376Z,58.23
2022-10-14T15:03:34.169Z,58.63
2022-10-14T15:06:04.015Z,58.77
2022-10-14T15:08:37.356Z,59.32
2022-10-14T15:11:04.331Z,59.85
2022-10-14T15:13:39.992Z,59.91
2022-10-14T15:16:07.591Z,60.32
2022-10-14T15:18:34.508Z,60.48
2022-10-14T15:21:18.343Z,60.19
2022-10-14T15:23:50.587Z,60.06
2022-10-14T15:26:46.507Z,60.89
2022-10-14T15:32:15.364Z,60.94
2022-10-14T15:34:41.995Z,61.21
2022-10-14T15:37:13.586Z,61.61
2022-10-14T15:39:40.152Z,62.00
2022-10-14T15:42:12.546Z,61.95
2022-10-14T15:44:39.061Z,61.92
2022-10-14T15:47:08.900Z,62.14
2022-10-14T15:49:42.461Z,62.07
2022-10-14T15:52:16.627Z,61.96
2022-10-14T15:54:43.832Z,62.16
2022-10-14T15:57:13.948Z,62.44
2022-10-14T15:59:46.310Z,62.44
2022-10-14T16:02:23.657Z,62.76
2022-10-14T16:05:15.024Z,62.71
2022-10-14T16:07:38.105Z,63.19
2022-10-14T16:10:05.992Z,63.37
2022-10-14T16:12:32.504Z,63.28
2022-10-14T16:15:00.189Z,63.22
2022-10-14T16:17:26.717Z,63.21
2022-10-14T16:19:53.200Z,63.32
2022-10-14T16:22:19.704Z,63.39
2022-10-14T16:24:46.204Z,63.49
2022-10-14T16:27:12.792Z,63.56
2022-10-14T16:29:39.234Z,63.84
2022-10-14T16:32:05.797Z,63.73
2022-10-14T16:34:32.277Z,63.54
2022-10-14T16:36:58.840Z,63.56
2022-10-14T16:39:25.461Z,63.59
2022-10-14T16:41:52.007Z,63.95
2022-10-14T16:44:18.468Z,63.86
2022-10-14T16:46:45.046Z,64.09
2022-10-14T16:49:11.756Z,64.19
2022-10-14T16:51:38.238Z,64.22
2022-10-14T16:54:04.786Z,64.19
2022-10-14T16:56:31.255Z,64.40
2022-10-14T16:58:58.931Z,64.45
2022-10-14T17:01:25.566Z,64.42
2022-10-14T17:03:53.326Z,64.24
2022-10-14T17:06:23.908Z,64.56
2022-10-14T17:08:51.136Z,64.43
2022-10-14T17:11:18.143Z,64.56
2022-10-14T17:13:44.969Z,64.40
2022-10-14T17:16:12.003Z,64.70
2022-10-14T17:18:41.053Z,64.74
2022-10-14T17:21:10.603Z,64.72
2022-10-14T17:23:38.696Z,64.85
2022-10-14T17:26:05.539Z,64.77
2022-10-14T17:28:32.626Z,64.88
2022-10-14T17:30:59.748Z,64.75
2022-10-14T17:33:26.277Z,64.93
2022-10-14T17:35:57.168Z,64.44
2022-10-14T17:38:24.942Z,64.68
2022-10-14T17:40:51.703Z,64.91
2022-10-14T17:43:19.331Z,64.77
2022-10-14T17:45:46.106Z,65.00
2022-10-14T17:48:13.861Z,64.62
2022-10-14T17:50:40.374Z,64.82
2022-10-14T17:53:06.836Z,64.87
2022-10-14T17:55:35.519Z,64.89
2022-10-14T17:58:02.058Z,65.13
2022-10-14T18:00:28.592Z,64.97
2022-10-14T18:02:55.060Z,65.20
2022-10-14T18:05:21.635Z,64.88
2022-10-14T18:07:48.112Z,64.83
2022-10-14T18:10:14.668Z,64.51
2022-10-14T18:12:41.622Z,64.87
2022-10-14T18:15:08.616Z,64.92
2022-10-14T18:17:35.167Z,64.81
2022-10-14T18:20:02.048Z,64.93
2022-10-14T18:22:28.725Z,64.77
2022-10-14T18:24:55.188Z,64.78
2022-10-14T18:27:22.558Z,64.89
2022-10-14T18:29:49.256Z,65.04
2022-10-14T18:32:15.755Z,64.73
2022-10-14T18:34:42.261Z,64.83
2022-10-14T18:37:08.763Z,64.59
2022-10-14T18:39:35.243Z,64.62
2022-10-14T18:42:02.768Z,64.48
2022-10-14T18:44:29.290Z,64.79
2022-10-14T18:46:55.852Z,64.60
2022-10-14T18:49:22.803Z,64.91
2022-10-14T18:51:49.550Z,64.58
2022-10-14T18:54:19.212Z,64.68
2022-10-14T18:56:46.726Z,64.91
2022-10-14T18:59:15.736Z,64.66
2022-10-14T19:01:42.574Z,64.75
2022-10-14T19:04:11.292Z,64.96
2022-10-14T19:06:37.792Z,64.65
2022-10-14T19:09:05.073Z,64.86
2022-10-14T19:11:34.311Z,64.39
2022-10-14T19:14:01.641Z,64.74
2022-10-14T19:16:33.168Z,64.75
2022-10-14T19:19:04.312Z,64.46
2022-10-14T19:21:31.278Z,64.73
2022-10-14T19:23:58.881Z,64.75
2022-10-14T19:26:28.522Z,64.43
2022-10-14T19:28:57.151Z,64.86
2022-10-14T19:31:26.064Z,64.59
2022-10-14T19:33:53.829Z,64.89
2022-10-14T19:36:22.955Z,64.75
2022-10-14T19:38:52.470Z,64.97
2022-10-14T19:41:19.156Z,64.83
2022-10-14T19:43:45.875Z,64.84
2022-10-14T19:46:13.402Z,65.20
2022-10-14T19:48:40.078Z,65.25
2022-10-14T19:51:08.109Z,65.14
2022-10-14T19:53:34.873Z,65.09
2022-10-14T19:56:05.719Z,65.08
2022-10-14T19:58:32.559Z,65.43
2022-10-14T20:01:07.351Z,65.16
2022-10-14T20:03:34.322Z,65.42
2022-10-14T20:06:01.247Z,65.20
2022-10-14T20:08:28.632Z,65.38
2022-10-14T20:10:55.455Z,65.24
2022-10-14T20:13:22.739Z,65.40
2022-10-14T20:15:54.272Z,64.85
2022-10-14T20:18:21.043Z,65.21
2022-10-14T20:20:47.644Z,65.24
2022-10-14T20:23:14.191Z,65.50
2022-10-14T20:25:40.792Z,65.44
2022-10-14T20:28:08.153Z,65.54
2022-10-14T20:30:34.811Z,65.52
2022-10-14T20:33:01.322Z,65.58
2022-10-14T20:37:55.305Z,65.64
2022-10-14T20:42:48.710Z,65.69
2022-10-14T20:45:15.405Z,65.77
2022-10-14T20:47:41.924Z,65.46
2022-10-14T20:50:08.666Z,65.71
2022-10-14T20:52:35.265Z,65.58
2022-10-14T20:55:01.865Z,65.72
2022-10-14T20:57:28.449Z,65.71
2022-10-14T20:59:54.957Z,65.66
2022-10-14T21:02:21.638Z,65.42
2022-10-14T21:04:49.766Z,65.56
2022-10-14T21:07:16.300Z,65.38
2022-10-14T21:09:42.936Z,65.48
2022-10-14T21:12:10.087Z,65.52
2022-10-14T21:14:36.635Z,65.43
2022-10-14T21:17:03.540Z,65.82
2022-10-14T21:19:30.168Z,65.76
2022-10-14T21:21:56.803Z,65.66
2022-10-14T21:24:23.783Z,65.78
2022-10-14T21:26:50.260Z,65.81
2022-10-14T21:29:17.511Z,65.64
2022-10-14T21:31:44.291Z,65.79
2022-10-14T21:34:11.500Z,65.90
2022-10-14T21:36:38.875Z,65.84
2022-10-14T21:39:16.422Z,65.84
2022-10-14T21:41:43.128Z,66.15
2022-10-14T21:44:13.443Z,65.91
2022-10-14T21:46:39.963Z,66.13
2022-10-14T21:49:06.666Z,65.92
2022-10-14T21:51:34.104Z,66.07
2022-10-14T21:54:00.775Z,66.26
2022-10-14T21:56:28.122Z,66.11
2022-10-14T21:58:54.709Z,66.18
2022-10-14T22:01:27.420Z,65.79
2022-10-14T22:03:56.712Z,66.23
2022-10-14T22:06:26.379Z,66.02
2022-10-14T22:08:56.422Z,65.98
2022-10-14T22:11:29.117Z,65.67
2022-10-14T22:13:57.096Z,65.98
2022-10-14T22:16:24.152Z,66.25
2022-10-14T22:18:52.292Z,66.17
2022-10-14T22:21:20.164Z,66.03
2022-10-14T22:23:47.863Z,66.19
2022-10-14T22:26:17.295Z,66.12
2022-10-14T22:28:44.201Z,66.33
2022-10-14T22:31:13.857Z,66.46
2022-10-14T22:33:41.113Z,66.42
2022-10-14T22:36:22.815Z,66.50
2022-10-14T22:38:51.733Z,66.52
2022-10-14T22:41:19.881Z,66.51
2022-10-14T22:43:48.339Z,66.60
2022-10-14T22:46:16.878Z,66.69
2022-10-14T22:48:43.360Z,66.60
2022-10-14T22:51:11.942Z,66.82
2022-10-14T22:53:40.236Z,66.83
2022-10-14T22:56:09.796Z,66.92
2022-10-14T22:58:36.965Z,66.89
2022-10-14T23:01:07.741Z,66.81
2022-10-14T23:03:35.320Z,67.05
2022-10-14T23:06:03.561Z,66.77
2022-10-14T23:08:30.905Z,66.97
2022-10-14T23:10:58.321Z,66.53
2022-10-14T23:13:25.429Z,66.66
2022-10-14T23:15:59.320Z,66.67
2022-10-14T23:18:27.436Z,66.82
2022-10-14T23:20:54.064Z,66.90
2022-10-14T23:23:20.525Z,66.85
2022-10-14T23:25:47.214Z,66.58
2022-10-14T23:28:14.037Z,66.43
2022-10-14T23:30:40.672Z,66.62
2022-10-14T23:33:07.376Z,66.76
2022-10-14T23:35:35.486Z,66.78
2022-10-14T23:38:01.907Z,66.98
2022-10-14T23:40:28.367Z,67.05
2022-10-14T23:42:54.861Z,66.71
2022-10-14T23:45:21.388Z,66.88
2022-10-14T23:47:47.956Z,66.89
2022-10-14T23:50:14.546Z,66.88
2022-10-14T23:52:41.146Z,67.15
2022-10-14T23:55:08.269Z,67.09
2022-10-14T23:57:34.738Z,67.25
